Airfield :
LOGIN :

Register | Disclaimer

   EN    FR    IT 

 










Legend :    VFR   Marginal VFR   IFR   Intensive IFR   Very Intensive IFR
Visi :
Ceiling :
>= 8 km
>= 3000ft
5 to 8 km
1000 to 3000 ft
1500m to 5 km
500 to 1000 ft
800 to 1500m
200 to 500 ft
< 800m
< 200 ft
Symbols :   Thunderstorms  Fog  Heavy snow  Heavy precipitations  Wind > 20 kt
SIGMETs :     Misc.  Thunderstorms  Icing  Turbulence  Mountain Waves  Volcanic Ashes







- Airport Elevation : 510 ft


LJCE - Cerklje

CURRENT METAR :
  • 190330Z AUTO 00000KT 8000 BR NCD 16/16 Q1014

EXPIRED METARs :
  • 190300Z AUTO 28002KT 0500 R09/0600U BR NCD 16/16 Q1014
  • 190230Z AUTO 00000KT 9999 NCD 17/16 Q1014
  • 190200Z AUTO 22002KT 9999 FEW010/// 17/16 Q1014
  • 190130Z AUTO 22002KT 9000 SCT004/// 17/17 Q1014
  • 190100Z AUTO VRB01KT 2500 R09/0700D BR NCD 17/17 Q1014

TAF TAF LJCE
Valid from the 19 at 03:00 until the 19 at 12:00 UTC


190200Z 1903/1912 VRB02KT 9000 SCT005
PROB30
TEMPO 1903/1907 1500 BCFG
BECMG 1906/1908 9999 FEW045
No reported NOTAMs for that airfield.



MET'MAP, your aeronautical weather chart ! - Copyright ORBIFLY December 2007 - Disclaimer

ORBIFLY MET'MAP TEAM :

Programming & Development : Alexandra Zaïnal
Concept & Development : Baudouin d'Aumeries
Co-Development & Prog : Marc-Olivier Méhu
Technical & hardware support : Manuel Goepfert

Contact : metmap@orbifly.com




SOURCES & CREDITS :

   NOAA